sensor_id;sensor_type;location;lat;lon;timestamp;P1;durP1;ratioP1;P2;durP2;ratioP2
18196;SDS011;9224;52.422;13.024;2022-12-07T00:01:47;10.07;;;9.07;;
18196;SDS011;9224;52.422;13.024;2022-12-07T00:04:14;10.18;;;8.82;;
18196;SDS011;9224;52.422;13.024;2022-12-07T00:06:43;9.82;;;8.82;;
18196;SDS011;9224;52.422;13.024;2022-12-07T00:09:11;9.75;;;8.75;;
18196;SDS011;9224;52.422;13.024;2022-12-07T00:11:38;10.38;;;9.27;;
18196;SDS011;9224;52.422;13.024;2022-12-07T00:14:07;9.38;;;8.40;;
18196;SDS011;9224;52.422;13.024;2022-12-07T00:16:37;10.13;;;9.05;;
18196;SDS011;9224;52.422;13.024;2022-12-07T00:19:04;9.15;;;8.00;;
18196;SDS011;9224;52.422;13.024;2022-12-07T00:21:31;8.88;;;7.97;;
18196;SDS011;9224;52.422;13.024;2022-12-07T00:23:59;8.88;;;8.07;;
18196;SDS011;9224;52.422;13.024;2022-12-07T00:26:27;7.82;;;7.03;;
18196;SDS011;9224;52.422;13.024;2022-12-07T00:28:55;6.97;;;6.27;;
18196;SDS011;9224;52.422;13.024;2022-12-07T00:31:26;7.18;;;6.47;;
18196;SDS011;9224;52.422;13.024;2022-12-07T00:33:54;6.70;;;6.10;;
18196;SDS011;9224;52.422;13.024;2022-12-07T00:36:22;7.00;;;6.30;;
18196;SDS011;9224;52.422;13.024;2022-12-07T00:38:50;6.97;;;6.30;;
18196;SDS011;9224;52.422;13.024;2022-12-07T00:41:17;7.03;;;6.43;;
18196;SDS011;9224;52.422;13.024;2022-12-07T00:43:45;7.30;;;6.60;;
18196;SDS011;9224;52.422;13.024;2022-12-07T00:46:12;7.25;;;6.50;;
18196;SDS011;9224;52.422;13.024;2022-12-07T00:48:42;7.53;;;6.67;;
18196;SDS011;9224;52.422;13.024;2022-12-07T00:51:09;7.65;;;6.95;;
18196;SDS011;9224;52.422;13.024;2022-12-07T00:53:37;7.47;;;6.72;;
18196;SDS011;9224;52.422;13.024;2022-12-07T00:56:05;7.63;;;6.88;;
18196;SDS011;9224;52.422;13.024;2022-12-07T00:58:32;7.70;;;6.82;;
18196;SDS011;9224;52.422;13.024;2022-12-07T01:00:59;7.70;;;6.90;;
18196;SDS011;9224;52.422;13.024;2022-12-07T01:03:26;7.63;;;6.90;;
18196;SDS011;9224;52.422;13.024;2022-12-07T01:05:55;7.77;;;7.07;;
18196;SDS011;9224;52.422;13.024;2022-12-07T01:08:22;7.40;;;6.70;;
18196;SDS011;9224;52.422;13.024;2022-12-07T01:10:49;7.53;;;6.73;;
18196;SDS011;9224;52.422;13.024;2022-12-07T01:13:24;7.10;;;6.40;;
18196;SDS011;9224;52.422;13.024;2022-12-07T01:15:50;7.88;;;6.50;;
18196;SDS011;9224;52.422;13.024;2022-12-07T01:18:17;6.90;;;6.30;;
18196;SDS011;9224;52.422;13.024;2022-12-07T01:20:43;7.38;;;6.68;;
18196;SDS011;9224;52.422;13.024;2022-12-07T01:23:11;7.47;;;6.70;;
18196;SDS011;9224;52.422;13.024;2022-12-07T01:25:38;7.57;;;6.70;;
18196;SDS011;9224;52.422;13.024;2022-12-07T01:28:04;7.30;;;6.60;;
18196;SDS011;9224;52.422;13.024;2022-12-07T01:30:31;7.22;;;6.53;;
18196;SDS011;9224;52.422;13.024;2022-12-07T01:32:58;7.03;;;6.32;;
18196;SDS011;9224;52.422;13.024;2022-12-07T01:35:24;7.05;;;6.35;;
18196;SDS011;9224;52.422;13.024;2022-12-07T01:37:51;6.97;;;6.07;;
18196;SDS011;9224;52.422;13.024;2022-12-07T01:40:19;6.45;;;5.85;;
18196;SDS011;9224;52.422;13.024;2022-12-07T01:42:46;6.70;;;6.00;;
18196;SDS011;9224;52.422;13.024;2022-12-07T01:45:36;6.40;;;5.75;;
18196;SDS011;9224;52.422;13.024;2022-12-07T01:48:05;6.18;;;5.47;;
18196;SDS011;9224;52.422;13.024;2022-12-07T01:50:32;6.55;;;5.95;;
18196;SDS011;9224;52.422;13.024;2022-12-07T01:52:59;6.82;;;6.00;;
18196;SDS011;9224;52.422;13.024;2022-12-07T01:55:29;6.55;;;5.95;;
18196;SDS011;9224;52.422;13.024;2022-12-07T01:57:56;6.63;;;5.80;;
18196;SDS011;9224;52.422;13.024;2022-12-07T02:00:23;6.65;;;5.95;;
18196;SDS011;9224;52.422;13.024;2022-12-07T02:02:51;6.40;;;5.80;;
18196;SDS011;9224;52.422;13.024;2022-12-07T02:05:21;6.82;;;6.13;;
18196;SDS011;9224;52.422;13.024;2022-12-07T02:07:49;6.70;;;6.07;;
18196;SDS011;9224;52.422;13.024;2022-12-07T02:10:18;7.45;;;6.13;;
18196;SDS011;9224;52.422;13.024;2022-12-07T02:12:48;6.70;;;6.00;;
18196;SDS011;9224;52.422;13.024;2022-12-07T02:15:16;7.40;;;6.40;;
18196;SDS011;9224;52.422;13.024;2022-12-07T02:17:45;8.00;;;6.78;;
18196;SDS011;9224;52.422;13.024;2022-12-07T02:20:18;7.60;;;6.65;;
18196;SDS011;9224;52.422;13.024;2022-12-07T02:23:04;6.95;;;6.25;;
18196;SDS011;9224;52.422;13.024;2022-12-07T02:28:51;8.02;;;7.20;;
18196;SDS011;9224;52.422;13.024;2022-12-07T02:31:24;8.50;;;7.60;;
18196;SDS011;9224;52.422;13.024;2022-12-07T02:33:53;8.98;;;7.72;;
18196;SDS011;9224;52.422;13.024;2022-12-07T02:36:22;9.57;;;8.57;;
18196;SDS011;9224;52.422;13.024;2022-12-07T02:38:53;10.00;;;8.85;;
18196;SDS011;9224;52.422;13.024;2022-12-07T02:41:22;11.40;;;9.38;;
18196;SDS011;9224;52.422;13.024;2022-12-07T02:43:52;9.88;;;8.63;;
18196;SDS011;9224;52.422;13.024;2022-12-07T02:46:22;10.43;;;9.02;;
18196;SDS011;9224;52.422;13.024;2022-12-07T02:48:50;11.55;;;9.60;;
18196;SDS011;9224;52.422;13.024;2022-12-07T02:51:18;11.85;;;9.63;;
18196;SDS011;9224;52.422;13.024;2022-12-07T02:53:45;11.88;;;10.07;;
18196;SDS011;9224;52.422;13.024;2022-12-07T02:56:13;11.85;;;9.88;;
18196;SDS011;9224;52.422;13.024;2022-12-07T02:58:50;10.73;;;9.20;;
18196;SDS011;9224;52.422;13.024;2022-12-07T03:01:26;12.90;;;9.98;;
18196;SDS011;9224;52.422;13.024;2022-12-07T03:03:58;12.32;;;10.07;;
18196;SDS011;9224;52.422;13.024;2022-12-07T03:06:31;10.88;;;9.40;;
18196;SDS011;9224;52.422;13.024;2022-12-07T03:09:01;12.77;;;10.27;;
18196;SDS011;9224;52.422;13.024;2022-12-07T03:11:33;12.10;;;9.80;;
18196;SDS011;9224;52.422;13.024;2022-12-07T03:14:09;13.57;;;10.55;;
18196;SDS011;9224;52.422;13.024;2022-12-07T03:16:40;12.90;;;10.10;;
18196;SDS011;9224;52.422;13.024;2022-12-07T03:19:10;13.95;;;11.18;;
18196;SDS011;9224;52.422;13.024;2022-12-07T03:21:40;13.55;;;10.85;;
18196;SDS011;9224;52.422;13.024;2022-12-07T03:24:08;13.32;;;10.88;;
18196;SDS011;9224;52.422;13.024;2022-12-07T03:26:38;13.13;;;10.80;;
18196;SDS011;9224;52.422;13.024;2022-12-07T03:29:09;14.32;;;11.63;;
18196;SDS011;9224;52.422;13.024;2022-12-07T03:31:38;13.88;;;11.35;;
18196;SDS011;9224;52.422;13.024;2022-12-07T03:34:26;14.20;;;12.10;;
18196;SDS011;9224;52.422;13.024;2022-12-07T03:37:15;14.73;;;11.77;;
18196;SDS011;9224;52.422;13.024;2022-12-07T03:40:04;15.88;;;12.30;;
18196;SDS011;9224;52.422;13.024;2022-12-07T03:42:52;17.08;;;12.63;;
18196;SDS011;9224;52.422;13.024;2022-12-07T03:45:21;16.33;;;12.15;;
18196;SDS011;9224;52.422;13.024;2022-12-07T03:47:52;15.57;;;12.00;;
18196;SDS011;9224;52.422;13.024;2022-12-07T03:50:22;16.30;;;12.82;;
18196;SDS011;9224;52.422;13.024;2022-12-07T03:52:53;18.60;;;13.85;;
18196;SDS011;9224;52.422;13.024;2022-12-07T03:55:22;17.75;;;13.85;;
18196;SDS011;9224;52.422;13.024;2022-12-07T03:57:53;18.60;;;13.43;;
18196;SDS011;9224;52.422;13.024;2022-12-07T04:00:23;19.95;;;14.38;;
18196;SDS011;9224;52.422;13.024;2022-12-07T04:02:51;18.63;;;14.63;;
18196;SDS011;9224;52.422;13.024;2022-12-07T04:05:18;19.58;;;15.05;;
18196;SDS011;9224;52.422;13.024;2022-12-07T04:07:45;23.25;;;16.13;;
18196;SDS011;9224;52.422;13.024;2022-12-07T04:10:11;22.75;;;15.20;;
18196;SDS011;9224;52.422;13.024;2022-12-07T04:12:38;25.20;;;17.20;;
18196;SDS011;9224;52.422;13.024;2022-12-07T04:15:05;23.73;;;17.05;;
18196;SDS011;9224;52.422;13.024;2022-12-07T04:17:34;23.23;;;16.87;;
18196;SDS011;9224;52.422;13.024;2022-12-07T04:20:01;27.08;;;18.02;;
18196;SDS011;9224;52.422;13.024;2022-12-07T04:22:29;25.50;;;17.75;;
18196;SDS011;9224;52.422;13.024;2022-12-07T04:24:55;27.77;;;18.65;;
18196;SDS011;9224;52.422;13.024;2022-12-07T04:27:22;26.55;;;18.25;;
18196;SDS011;9224;52.422;13.024;2022-12-07T04:29:48;29.48;;;19.13;;
18196;SDS011;9224;52.422;13.024;2022-12-07T04:32:15;27.20;;;19.58;;
18196;SDS011;9224;52.422;13.024;2022-12-07T04:34:43;29.42;;;19.05;;
18196;SDS011;9224;52.422;13.024;2022-12-07T04:37:10;32.93;;;19.53;;
18196;SDS011;9224;52.422;13.024;2022-12-07T04:39:36;28.05;;;19.83;;
18196;SDS011;9224;52.422;13.024;2022-12-07T04:42:03;29.10;;;19.95;;
18196;SDS011;9224;52.422;13.024;2022-12-07T04:44:30;27.58;;;19.42;;
18196;SDS011;9224;52.422;13.024;2022-12-07T04:46:57;30.38;;;19.55;;
18196;SDS011;9224;52.422;13.024;2022-12-07T04:49:23;29.77;;;20.55;;
18196;SDS011;9224;52.422;13.024;2022-12-07T04:51:51;29.10;;;20.35;;
18196;SDS011;9224;52.422;13.024;2022-12-07T04:54:18;31.05;;;19.92;;
18196;SDS011;9224;52.422;13.024;2022-12-07T04:56:45;28.45;;;19.00;;
18196;SDS011;9224;52.422;13.024;2022-12-07T04:59:12;30.17;;;19.45;;
18196;SDS011;9224;52.422;13.024;2022-12-07T05:01:39;29.50;;;18.95;;
18196;SDS011;9224;52.422;13.024;2022-12-07T05:04:06;30.13;;;20.02;;
18196;SDS011;9224;52.422;13.024;2022-12-07T05:06:33;30.43;;;19.73;;
18196;SDS011;9224;52.422;13.024;2022-12-07T05:09:02;27.58;;;19.60;;
18196;SDS011;9224;52.422;13.024;2022-12-07T05:11:29;31.02;;;19.95;;
18196;SDS011;9224;52.422;13.024;2022-12-07T05:14:06;33.70;;;20.55;;
18196;SDS011;9224;52.422;13.024;2022-12-07T05:16:34;35.05;;;21.73;;
18196;SDS011;9224;52.422;13.024;2022-12-07T05:19:01;34.72;;;22.17;;
18196;SDS011;9224;52.422;13.024;2022-12-07T05:21:29;38.50;;;22.55;;
18196;SDS011;9224;52.422;13.024;2022-12-07T05:23:55;36.78;;;21.48;;
18196;SDS011;9224;52.422;13.024;2022-12-07T05:26:23;38.42;;;22.75;;
18196;SDS011;9224;52.422;13.024;2022-12-07T05:28:50;40.58;;;23.52;;
18196;SDS011;9224;52.422;13.024;2022-12-07T05:31:17;41.42;;;23.20;;
18196;SDS011;9224;52.422;13.024;2022-12-07T05:33:44;46.13;;;23.42;;
18196;SDS011;9224;52.422;13.024;2022-12-07T05:36:10;42.38;;;23.85;;
18196;SDS011;9224;52.422;13.024;2022-12-07T05:38:37;41.78;;;23.58;;
18196;SDS011;9224;52.422;13.024;2022-12-07T05:41:05;41.28;;;23.60;;
18196;SDS011;9224;52.422;13.024;2022-12-07T05:43:34;38.53;;;23.80;;
18196;SDS011;9224;52.422;13.024;2022-12-07T05:46:00;40.67;;;23.80;;
18196;SDS011;9224;52.422;13.024;2022-12-07T05:48:27;39.70;;;23.67;;
18196;SDS011;9224;52.422;13.024;2022-12-07T05:50:53;41.17;;;24.13;;
18196;SDS011;9224;52.422;13.024;2022-12-07T05:53:20;40.45;;;24.30;;
18196;SDS011;9224;52.422;13.024;2022-12-07T05:55:47;40.35;;;24.35;;
18196;SDS011;9224;52.422;13.024;2022-12-07T05:58:13;40.20;;;24.83;;
18196;SDS011;9224;52.422;13.024;2022-12-07T06:00:58;40.78;;;24.20;;
18196;SDS011;9224;52.422;13.024;2022-12-07T06:03:25;39.97;;;23.65;;
18196;SDS011;9224;52.422;13.024;2022-12-07T06:05:52;40.97;;;24.92;;
18196;SDS011;9224;52.422;13.024;2022-12-07T06:08:19;41.00;;;25.08;;
18196;SDS011;9224;52.422;13.024;2022-12-07T06:10:46;41.17;;;24.75;;
18196;SDS011;9224;52.422;13.024;2022-12-07T06:13:33;38.50;;;23.90;;
18196;SDS011;9224;52.422;13.024;2022-12-07T06:16:00;37.88;;;24.13;;
18196;SDS011;9224;52.422;13.024;2022-12-07T06:18:26;38.45;;;25.13;;
18196;SDS011;9224;52.422;13.024;2022-12-07T06:20:53;39.63;;;24.45;;
18196;SDS011;9224;52.422;13.024;2022-12-07T06:23:20;39.53;;;25.25;;
18196;SDS011;9224;52.422;13.024;2022-12-07T06:25:46;39.17;;;24.83;;
18196;SDS011;9224;52.422;13.024;2022-12-07T06:28:13;40.67;;;25.17;;
18196;SDS011;9224;52.422;13.024;2022-12-07T06:30:39;39.67;;;24.60;;
18196;SDS011;9224;52.422;13.024;2022-12-07T06:33:07;36.92;;;24.17;;
18196;SDS011;9224;52.422;13.024;2022-12-07T06:35:34;35.77;;;23.57;;
18196;SDS011;9224;52.422;13.024;2022-12-07T06:38:00;37.15;;;24.00;;
18196;SDS011;9224;52.422;13.024;2022-12-07T06:40:27;35.67;;;23.90;;
18196;SDS011;9224;52.422;13.024;2022-12-07T06:42:54;37.38;;;24.48;;
18196;SDS011;9224;52.422;13.024;2022-12-07T06:45:20;33.07;;;23.30;;
18196;SDS011;9224;52.422;13.024;2022-12-07T06:47:47;37.72;;;24.42;;
18196;SDS011;9224;52.422;13.024;2022-12-07T06:50:15;35.60;;;22.50;;
18196;SDS011;9224;52.422;13.024;2022-12-07T06:52:42;33.55;;;23.40;;
18196;SDS011;9224;52.422;13.024;2022-12-07T06:55:08;35.00;;;22.73;;
18196;SDS011;9224;52.422;13.024;2022-12-07T06:57:35;35.95;;;23.30;;
18196;SDS011;9224;52.422;13.024;2022-12-07T07:00:02;33.00;;;23.85;;
18196;SDS011;9224;52.422;13.024;2022-12-07T07:02:29;31.95;;;22.33;;
18196;SDS011;9224;52.422;13.024;2022-12-07T07:04:55;33.13;;;22.53;;
18196;SDS011;9224;52.422;13.024;2022-12-07T07:07:23;32.63;;;23.23;;
18196;SDS011;9224;52.422;13.024;2022-12-07T07:09:50;31.95;;;22.50;;
18196;SDS011;9224;52.422;13.024;2022-12-07T07:12:17;29.85;;;21.35;;
18196;SDS011;9224;52.422;13.024;2022-12-07T07:14:43;33.33;;;22.70;;
18196;SDS011;9224;52.422;13.024;2022-12-07T07:17:10;30.83;;;21.70;;
18196;SDS011;9224;52.422;13.024;2022-12-07T07:19:37;28.33;;;20.65;;
18196;SDS011;9224;52.422;13.024;2022-12-07T07:22:03;28.88;;;21.55;;
18196;SDS011;9224;52.422;13.024;2022-12-07T07:24:31;26.73;;;20.27;;
18196;SDS011;9224;52.422;13.024;2022-12-07T07:26:58;27.42;;;19.95;;
18196;SDS011;9224;52.422;13.024;2022-12-07T07:29:24;25.98;;;19.30;;
18196;SDS011;9224;52.422;13.024;2022-12-07T07:31:51;25.33;;;18.63;;
18196;SDS011;9224;52.422;13.024;2022-12-07T07:34:18;23.48;;;17.05;;
18196;SDS011;9224;52.422;13.024;2022-12-07T07:36:44;21.08;;;16.27;;
18196;SDS011;9224;52.422;13.024;2022-12-07T07:39:11;19.27;;;14.82;;
18196;SDS011;9224;52.422;13.024;2022-12-07T07:41:40;19.75;;;15.27;;
18196;SDS011;9224;52.422;13.024;2022-12-07T07:44:06;20.02;;;14.88;;
18196;SDS011;9224;52.422;13.024;2022-12-07T07:46:33;17.92;;;14.63;;
18196;SDS011;9224;52.422;13.024;2022-12-07T07:49:00;18.77;;;14.68;;
18196;SDS011;9224;52.422;13.024;2022-12-07T07:51:26;17.85;;;14.32;;
18196;SDS011;9224;52.422;13.024;2022-12-07T07:53:53;17.15;;;13.40;;
18196;SDS011;9224;52.422;13.024;2022-12-07T07:56:20;15.65;;;12.13;;
18196;SDS011;9224;52.422;13.024;2022-12-07T07:58:48;14.32;;;11.68;;
18196;SDS011;9224;52.422;13.024;2022-12-07T08:01:17;14.40;;;11.50;;
18196;SDS011;9224;52.422;13.024;2022-12-07T08:03:45;14.90;;;12.20;;
18196;SDS011;9224;52.422;13.024;2022-12-07T08:06:12;13.63;;;11.48;;
18196;SDS011;9224;52.422;13.024;2022-12-07T08:08:39;14.13;;;11.65;;
18196;SDS011;9224;52.422;13.024;2022-12-07T08:11:05;15.10;;;12.38;;
18196;SDS011;9224;52.422;13.024;2022-12-07T08:13:33;14.38;;;11.23;;
18196;SDS011;9224;52.422;13.024;2022-12-07T08:16:04;12.52;;;10.30;;
18196;SDS011;9224;52.422;13.024;2022-12-07T08:18:34;11.50;;;9.25;;
18196;SDS011;9224;52.422;13.024;2022-12-07T08:21:01;9.88;;;8.00;;
18196;SDS011;9224;52.422;13.024;2022-12-07T08:23:28;8.27;;;7.05;;
18196;SDS011;9224;52.422;13.024;2022-12-07T08:25:55;9.47;;;7.30;;
18196;SDS011;9224;52.422;13.024;2022-12-07T08:28:21;6.07;;;5.47;;
18196;SDS011;9224;52.422;13.024;2022-12-07T08:30:48;6.53;;;5.70;;
18196;SDS011;9224;52.422;13.024;2022-12-07T08:33:16;6.53;;;5.50;;
18196;SDS011;9224;52.422;13.024;2022-12-07T08:35:42;5.30;;;4.75;;
18196;SDS011;9224;52.422;13.024;2022-12-07T08:38:09;4.88;;;4.13;;
18196;SDS011;9224;52.422;13.024;2022-12-07T08:40:36;4.35;;;3.92;;
18196;SDS011;9224;52.422;13.024;2022-12-07T08:43:02;4.93;;;4.50;;
18196;SDS011;9224;52.422;13.024;2022-12-07T08:45:29;5.55;;;4.70;;
18196;SDS011;9224;52.422;13.024;2022-12-07T08:47:59;4.90;;;4.30;;
18196;SDS011;9224;52.422;13.024;2022-12-07T08:50:30;5.17;;;4.67;;
18196;SDS011;9224;52.422;13.024;2022-12-07T08:52:57;4.65;;;4.25;;
18196;SDS011;9224;52.422;13.024;2022-12-07T08:55:24;5.22;;;4.68;;
18196;SDS011;9224;52.422;13.024;2022-12-07T08:57:52;5.10;;;4.60;;
18196;SDS011;9224;52.422;13.024;2022-12-07T09:00:19;4.90;;;4.40;;
18196;SDS011;9224;52.422;13.024;2022-12-07T09:02:46;4.93;;;4.50;;
18196;SDS011;9224;52.422;13.024;2022-12-07T09:05:13;4.82;;;4.35;;
18196;SDS011;9224;52.422;13.024;2022-12-07T09:07:42;5.80;;;4.53;;
18196;SDS011;9224;52.422;13.024;2022-12-07T09:10:09;3.80;;;3.50;;
18196;SDS011;9224;52.422;13.024;2022-12-07T09:12:36;4.53;;;4.13;;
18196;SDS011;9224;52.422;13.024;2022-12-07T09:15:03;4.05;;;3.47;;
18196;SDS011;9224;52.422;13.024;2022-12-07T09:17:31;4.65;;;4.07;;
18196;SDS011;9224;52.422;13.024;2022-12-07T09:19:58;4.55;;;4.15;;
18196;SDS011;9224;52.422;13.024;2022-12-07T09:22:27;4.82;;;3.97;;
18196;SDS011;9224;52.422;13.024;2022-12-07T09:24:56;4.50;;;4.10;;
18196;SDS011;9224;52.422;13.024;2022-12-07T09:27:23;5.03;;;4.22;;
18196;SDS011;9224;52.422;13.024;2022-12-07T09:29:49;5.50;;;5.00;;
18196;SDS011;9224;52.422;13.024;2022-12-07T09:32:16;5.90;;;5.30;;
18196;SDS011;9224;52.422;13.024;2022-12-07T09:34:43;5.88;;;5.20;;
18196;SDS011;9224;52.422;13.024;2022-12-07T09:37:09;6.05;;;4.78;;
18196;SDS011;9224;52.422;13.024;2022-12-07T09:39:38;5.78;;;5.05;;
18196;SDS011;9224;52.422;13.024;2022-12-07T09:42:06;6.25;;;4.97;;
18196;SDS011;9224;52.422;13.024;2022-12-07T09:44:36;4.88;;;4.38;;
18196;SDS011;9224;52.422;13.024;2022-12-07T09:47:03;5.18;;;4.50;;
18196;SDS011;9224;52.422;13.024;2022-12-07T09:49:31;5.40;;;4.87;;
18196;SDS011;9224;52.422;13.024;2022-12-07T09:51:59;6.38;;;4.75;;
18196;SDS011;9224;52.422;13.024;2022-12-07T09:54:27;5.57;;;5.07;;
18196;SDS011;9224;52.422;13.024;2022-12-07T09:56:55;5.15;;;4.65;;
18196;SDS011;9224;52.422;13.024;2022-12-07T09:59:23;5.75;;;5.15;;
18196;SDS011;9224;52.422;13.024;2022-12-07T10:01:49;6.35;;;5.15;;
18196;SDS011;9224;52.422;13.024;2022-12-07T10:04:17;6.50;;;5.90;;
18196;SDS011;9224;52.422;13.024;2022-12-07T10:06:46;6.72;;;6.05;;
18196;SDS011;9224;52.422;13.024;2022-12-07T10:09:13;6.38;;;5.78;;
18196;SDS011;9224;52.422;13.024;2022-12-07T10:12:00;6.32;;;5.72;;
18196;SDS011;9224;52.422;13.024;2022-12-07T10:14:30;6.10;;;5.50;;
18196;SDS011;9224;52.422;13.024;2022-12-07T10:16:58;6.32;;;5.05;;
18196;SDS011;9224;52.422;13.024;2022-12-07T10:19:25;6.30;;;4.90;;
18196;SDS011;9224;52.422;13.024;2022-12-07T10:22:01;5.73;;;5.10;;
18196;SDS011;9224;52.422;13.024;2022-12-07T10:24:29;6.43;;;5.28;;
18196;SDS011;9224;52.422;13.024;2022-12-07T10:26:56;5.85;;;5.25;;
18196;SDS011;9224;52.422;13.024;2022-12-07T10:29:23;5.90;;;5.05;;
18196;SDS011;9224;52.422;13.024;2022-12-07T10:31:55;5.70;;;5.10;;
18196;SDS011;9224;52.422;13.024;2022-12-07T10:34:24;5.60;;;5.10;;
18196;SDS011;9224;52.422;13.024;2022-12-07T10:36:54;5.63;;;5.03;;
18196;SDS011;9224;52.422;13.024;2022-12-07T10:39:40;5.70;;;5.20;;
18196;SDS011;9224;52.422;13.024;2022-12-07T10:42:13;6.13;;;5.10;;
18196;SDS011;9224;52.422;13.024;2022-12-07T10:44:43;6.32;;;4.90;;
18196;SDS011;9224;52.422;13.024;2022-12-07T10:47:15;6.53;;;4.68;;
18196;SDS011;9224;52.422;13.024;2022-12-07T10:50:01;5.40;;;4.95;;
18196;SDS011;9224;52.422;13.024;2022-12-07T10:52:58;5.80;;;5.20;;
18196;SDS011;9224;52.422;13.024;2022-12-07T10:55:33;5.00;;;4.45;;
18196;SDS011;9224;52.422;13.024;2022-12-07T10:58:15;5.07;;;4.45;;
18196;SDS011;9224;52.422;13.024;2022-12-07T11:00:53;5.88;;;4.63;;
18196;SDS011;9224;52.422;13.024;2022-12-07T11:06:16;5.13;;;4.22;;
18196;SDS011;9224;52.422;13.024;2022-12-07T11:08:57;6.13;;;4.60;;
18196;SDS011;9224;52.422;13.024;2022-12-07T11:11:30;5.35;;;4.50;;
18196;SDS011;9224;52.422;13.024;2022-12-07T11:14:03;6.23;;;4.30;;
18196;SDS011;9224;52.422;13.024;2022-12-07T11:16:40;5.78;;;4.43;;
18196;SDS011;9224;52.422;13.024;2022-12-07T11:19:21;5.53;;;4.20;;
18196;SDS011;9224;52.422;13.024;2022-12-07T11:21:56;4.38;;;3.92;;
18196;SDS011;9224;52.422;13.024;2022-12-07T11:24:24;6.28;;;4.60;;
18196;SDS011;9224;52.422;13.024;2022-12-07T11:26:58;4.87;;;4.13;;
18196;SDS011;9224;52.422;13.024;2022-12-07T11:29:39;6.25;;;4.18;;
18196;SDS011;9224;52.422;13.024;2022-12-07T11:32:14;5.40;;;4.03;;
18196;SDS011;9224;52.422;13.024;2022-12-07T11:34:48;6.50;;;4.18;;
18196;SDS011;9224;52.422;13.024;2022-12-07T11:37:25;5.70;;;3.85;;
18196;SDS011;9224;52.422;13.024;2022-12-07T11:39:57;5.03;;;4.10;;
18196;SDS011;9224;52.422;13.024;2022-12-07T11:42:27;5.43;;;3.88;;
18196;SDS011;9224;52.422;13.024;2022-12-07T11:44:57;4.43;;;3.50;;
18196;SDS011;9224;52.422;13.024;2022-12-07T11:47:28;5.05;;;3.78;;
18196;SDS011;9224;52.422;13.024;2022-12-07T11:50:01;5.07;;;3.70;;
18196;SDS011;9224;52.422;13.024;2022-12-07T11:52:32;4.03;;;3.53;;
18196;SDS011;9224;52.422;13.024;2022-12-07T11:55:14;5.95;;;3.55;;
18196;SDS011;9224;52.422;13.024;2022-12-07T11:57:48;4.63;;;3.83;;
18196;SDS011;9224;52.422;13.024;2022-12-07T12:00:17;6.15;;;3.72;;
18196;SDS011;9224;52.422;13.024;2022-12-07T12:02:46;4.72;;;3.63;;
18196;SDS011;9224;52.422;13.024;2022-12-07T12:05:18;5.55;;;3.60;;
18196;SDS011;9224;52.422;13.024;2022-12-07T12:07:46;5.60;;;3.55;;
18196;SDS011;9224;52.422;13.024;2022-12-07T12:10:18;5.95;;;3.70;;
18196;SDS011;9224;52.422;13.024;2022-12-07T12:13:06;4.68;;;3.63;;
18196;SDS011;9224;52.422;13.024;2022-12-07T12:16:05;5.78;;;3.88;;
18196;SDS011;9224;52.422;13.024;2022-12-07T12:18:50;6.32;;;3.40;;
18196;SDS011;9224;52.422;13.024;2022-12-07T12:21:29;5.40;;;3.58;;
18196;SDS011;9224;52.422;13.024;2022-12-07T12:23:57;5.57;;;3.30;;
18196;SDS011;9224;52.422;13.024;2022-12-07T12:26:26;5.53;;;3.30;;
18196;SDS011;9224;52.422;13.024;2022-12-07T12:28:55;5.77;;;3.13;;
18196;SDS011;9224;52.422;13.024;2022-12-07T12:31:34;5.63;;;2.88;;
18196;SDS011;9224;52.422;13.024;2022-12-07T12:34:11;4.18;;;3.08;;
18196;SDS011;9224;52.422;13.024;2022-12-07T12:36:59;4.47;;;3.30;;
18196;SDS011;9224;52.422;13.024;2022-12-07T12:39:26;4.35;;;3.40;;
18196;SDS011;9224;52.422;13.024;2022-12-07T12:41:59;6.03;;;3.25;;
18196;SDS011;9224;52.422;13.024;2022-12-07T12:44:39;4.18;;;3.05;;
18196;SDS011;9224;52.422;13.024;2022-12-07T12:50:29;4.57;;;3.05;;
18196;SDS011;9224;52.422;13.024;2022-12-07T12:53:00;5.32;;;3.03;;
18196;SDS011;9224;52.422;13.024;2022-12-07T12:55:48;3.97;;;2.97;;
18196;SDS011;9224;52.422;13.024;2022-12-07T12:58:27;4.63;;;2.92;;
18196;SDS011;9224;52.422;13.024;2022-12-07T13:04:00;4.57;;;2.88;;
18196;SDS011;9224;52.422;13.024;2022-12-07T13:06:35;5.13;;;2.80;;
18196;SDS011;9224;52.422;13.024;2022-12-07T13:09:04;4.65;;;3.13;;
18196;SDS011;9224;52.422;13.024;2022-12-07T13:11:43;5.72;;;3.05;;
18196;SDS011;9224;52.422;13.024;2022-12-07T13:17:07;3.95;;;2.90;;
18196;SDS011;9224;52.422;13.024;2022-12-07T13:25:20;4.75;;;3.35;;
18196;SDS011;9224;52.422;13.024;2022-12-07T13:27:55;4.82;;;3.10;;
18196;SDS011;9224;52.422;13.024;2022-12-07T13:30:24;6.18;;;3.20;;
18196;SDS011;9224;52.422;13.024;2022-12-07T13:32:51;5.60;;;3.63;;
18196;SDS011;9224;52.422;13.024;2022-12-07T13:35:31;4.53;;;3.70;;
18196;SDS011;9224;52.422;13.024;2022-12-07T13:38:04;5.95;;;3.33;;
18196;SDS011;9224;52.422;13.024;2022-12-07T13:40:33;5.47;;;3.33;;
18196;SDS011;9224;52.422;13.024;2022-12-07T13:43:01;5.20;;;3.38;;
18196;SDS011;9224;52.422;13.024;2022-12-07T13:45:30;5.10;;;3.37;;
18196;SDS011;9224;52.422;13.024;2022-12-07T13:48:19;5.30;;;3.40;;
18196;SDS011;9224;52.422;13.024;2022-12-07T13:50:54;5.90;;;3.47;;
18196;SDS011;9224;52.422;13.024;2022-12-07T13:53:22;5.43;;;3.30;;
18196;SDS011;9224;52.422;13.024;2022-12-07T13:55:50;4.78;;;3.53;;
18196;SDS011;9224;52.422;13.024;2022-12-07T13:58:33;4.70;;;3.40;;
18196;SDS011;9224;52.422;13.024;2022-12-07T14:01:00;5.88;;;3.88;;
18196;SDS011;9224;52.422;13.024;2022-12-07T14:03:28;4.28;;;3.65;;
18196;SDS011;9224;52.422;13.024;2022-12-07T14:08:46;6.37;;;3.70;;
18196;SDS011;9224;52.422;13.024;2022-12-07T14:11:15;5.13;;;3.30;;
18196;SDS011;9224;52.422;13.024;2022-12-07T14:13:51;7.45;;;3.92;;
18196;SDS011;9224;52.422;13.024;2022-12-07T14:16:26;5.23;;;3.47;;
18196;SDS011;9224;52.422;13.024;2022-12-07T14:18:54;4.93;;;3.20;;
18196;SDS011;9224;52.422;13.024;2022-12-07T14:21:22;5.30;;;3.38;;
18196;SDS011;9224;52.422;13.024;2022-12-07T14:24:04;5.55;;;3.20;;
18196;SDS011;9224;52.422;13.024;2022-12-07T14:26:36;5.85;;;3.28;;
18196;SDS011;9224;52.422;13.024;2022-12-07T14:29:20;7.82;;;3.75;;
18196;SDS011;9224;52.422;13.024;2022-12-07T14:31:48;6.53;;;3.30;;
18196;SDS011;9224;52.422;13.024;2022-12-07T14:34:14;7.47;;;3.88;;
18196;SDS011;9224;52.422;13.024;2022-12-07T14:36:41;7.28;;;3.70;;
18196;SDS011;9224;52.422;13.024;2022-12-07T14:39:08;5.97;;;3.80;;
18196;SDS011;9224;52.422;13.024;2022-12-07T14:41:34;6.90;;;3.33;;
18196;SDS011;9224;52.422;13.024;2022-12-07T14:44:18;5.90;;;3.37;;
18196;SDS011;9224;52.422;13.024;2022-12-07T14:46:46;6.97;;;3.72;;
18196;SDS011;9224;52.422;13.024;2022-12-07T14:49:12;7.63;;;3.90;;
18196;SDS011;9224;52.422;13.024;2022-12-07T14:51:39;6.28;;;3.53;;
18196;SDS011;9224;52.422;13.024;2022-12-07T14:54:07;7.10;;;3.80;;
18196;SDS011;9224;52.422;13.024;2022-12-07T14:56:41;7.68;;;3.65;;
18196;SDS011;9224;52.422;13.024;2022-12-07T14:59:09;6.28;;;3.30;;
18196;SDS011;9224;52.422;13.024;2022-12-07T15:01:35;7.72;;;3.50;;
18196;SDS011;9224;52.422;13.024;2022-12-07T15:04:02;7.72;;;3.42;;
18196;SDS011;9224;52.422;13.024;2022-12-07T15:06:29;5.68;;;3.30;;
18196;SDS011;9224;52.422;13.024;2022-12-07T15:08:55;7.43;;;3.57;;
18196;SDS011;9224;52.422;13.024;2022-12-07T15:11:22;7.50;;;3.78;;
18196;SDS011;9224;52.422;13.024;2022-12-07T15:13:50;4.53;;;3.30;;
18196;SDS011;9224;52.422;13.024;2022-12-07T15:16:36;7.43;;;3.53;;
18196;SDS011;9224;52.422;13.024;2022-12-07T15:19:04;6.97;;;3.78;;